Time;durP1;ratioP1;P1;durP2;ratioP2;P2;SDS_P1;SDS_P2;PMS_P1;PMS_P2;Temp;Humidity;BMP_temperature;BMP_pressure;BME280_temperature;BME280_humidity;BME280_pressure;Samples;Min_cycle;Max_cycle;Signal;HPM_P1;HPM_P2
2021/11/08 00:01:13;;;;;;;4.53;2.30;;;;;;;;;;5000088;28;24450;-63
2021/11/08 00:03:41;;;;;;;3.67;2.60;;;;;;;;;;5003127;28;25062;-63
2021/11/08 00:06:07;;;;;;;3.57;2.13;;;;;;;;;;5003030;28;24412;-63
2021/11/08 00:08:33;;;;;;;4.40;2.47;;;;;;;;;;5000457;28;24435;-63
2021/11/08 00:10:58;;;;;;;3.65;2.58;;;;;;;;;;4996966;28;24429;-63
2021/11/08 00:13:24;;;;;;;3.83;2.13;;;;;;;;;;4999352;28;24764;-63
2021/11/08 00:16:37;;;;;;;5.43;2.67;;;;;;;;;;5002271;28;24412;-63
2021/11/08 00:21:22;;;;;;;5.40;2.30;;;;;;;;;;4999275;28;24486;-63
2021/11/08 00:23:48;;;;;;;3.80;2.13;;;;;;;;;;4997696;28;24433;-62
2021/11/08 00:26:13;;;;;;;3.97;2.30;;;;;;;;;;5000851;28;24500;-63
2021/11/08 00:28:39;;;;;;;5.10;2.40;;;;;;;;;;5002708;28;24736;-62
2021/11/08 00:31:04;;;;;;;5.45;2.55;;;;;;;;;;5000849;28;24784;-63
2021/11/08 00:33:29;;;;;;;4.87;2.23;;;;;;;;;;5003231;28;24397;-63
2021/11/08 00:35:57;;;;;;;3.40;2.22;;;;;;;;;;4999357;28;25033;-63
2021/11/08 00:38:24;;;;;;;6.43;2.67;;;;;;;;;;4997135;28;24514;-63
2021/11/08 00:40:49;;;;;;;4.80;2.20;;;;;;;;;;4998824;28;24420;-63
2021/11/08 00:43:15;;;;;;;5.27;2.50;;;;;;;;;;5001378;28;24400;-63
2021/11/08 00:45:40;;;;;;;4.15;2.10;;;;;;;;;;5002129;28;24931;-62
2021/11/08 00:48:06;;;;;;;3.10;2.00;;;;;;;;;;4999844;28;24511;-62
2021/11/08 00:50:32;;;;;;;4.57;2.20;;;;;;;;;;4998605;28;24443;-62
2021/11/08 00:52:57;;;;;;;3.30;2.05;;;;;;;;;;4996689;28;24558;-62
2021/11/08 00:55:23;;;;;;;5.27;2.47;;;;;;;;;;4997534;28;24822;-62
2021/11/08 00:57:50;;;;;;;7.00;2.90;;;;;;;;;;4996781;28;24419;-62
2021/11/08 01:00:17;;;;;;;4.35;2.25;;;;;;;;;;5002593;28;24571;-62
2021/11/08 01:02:42;;;;;;;4.80;2.50;;;;;;;;;;5000314;28;24582;-63
2021/11/08 01:05:09;;;;;;;5.65;2.35;;;;;;;;;;4998286;28;25042;-63
2021/11/08 01:07:35;;;;;;;4.75;2.70;;;;;;;;;;4996365;28;25001;-61
2021/11/08 01:10:00;;;;;;;3.80;2.22;;;;;;;;;;5001508;28;24423;-62
2021/11/08 01:12:25;;;;;;;3.70;2.23;;;;;;;;;;5002157;28;24779;-63
2021/11/08 01:14:51;;;;;;;5.35;2.58;;;;;;;;;;5000347;28;24385;-62
2021/11/08 01:17:16;;;;;;;5.03;2.50;;;;;;;;;;4996004;28;24420;-62
2021/11/08 01:19:42;;;;;;;7.40;2.60;;;;;;;;;;4997796;28;25093;-62
2021/11/08 01:22:16;;;;;;;6.83;2.70;;;;;;;;;;5002165;28;24428;-62
2021/11/08 01:24:44;;;;;;;4.60;2.70;;;;;;;;;;5002055;28;24447;-62
2021/11/08 01:27:09;;;;;;;4.20;2.37;;;;;;;;;;4998021;28;24420;-62
2021/11/08 01:29:36;;;;;;;3.80;2.20;;;;;;;;;;4984175;28;25086;-62
2021/11/08 01:32:06;;;;;;;5.03;2.40;;;;;;;;;;4997780;28;24448;-61
2021/11/08 01:34:31;;;;;;;5.25;2.30;;;;;;;;;;4999859;28;24401;-62
2021/11/08 01:36:59;;;;;;;3.90;2.10;;;;;;;;;;4999904;28;24428;-62
2021/11/08 01:39:31;;;;;;;5.80;2.60;;;;;;;;;;5002831;28;24392;-62
2021/11/08 01:41:57;;;;;;;4.15;2.33;;;;;;;;;;4997156;28;24412;-61
2021/11/08 01:44:22;;;;;;;5.07;2.20;;;;;;;;;;4996271;28;24802;-62
2021/11/08 01:46:47;;;;;;;5.40;2.40;;;;;;;;;;4998328;28;24424;-63
2021/11/08 01:49:13;;;;;;;4.78;2.20;;;;;;;;;;4999988;28;24417;-63
2021/11/08 01:51:38;;;;;;;5.60;2.40;;;;;;;;;;5001068;28;24483;-62
2021/11/08 01:54:05;;;;;;;6.20;2.43;;;;;;;;;;5000303;28;24435;-64
2021/11/08 01:56:31;;;;;;;4.15;2.00;;;;;;;;;;5000352;28;24396;-63
2021/11/08 01:58:56;;;;;;;6.03;2.45;;;;;;;;;;4996022;28;24419;-63
2021/11/08 02:01:21;;;;;;;5.70;2.20;;;;;;;;;;4997101;28;25082;-63
2021/11/08 02:03:47;;;;;;;3.80;2.50;;;;;;;;;;4998404;28;24417;-63
2021/11/08 02:06:13;;;;;;;3.15;2.20;;;;;;;;;;5001750;28;24416;-63
2021/11/08 02:08:39;;;;;;;5.50;2.17;;;;;;;;;;5001694;28;25017;-63
2021/11/08 02:11:04;;;;;;;4.00;2.30;;;;;;;;;;4998794;28;24468;-62
2021/11/08 02:13:30;;;;;;;4.10;2.40;;;;;;;;;;4997206;28;24991;-63
2021/11/08 02:15:55;;;;;;;5.00;2.03;;;;;;;;;;4996392;28;24408;-63
2021/11/08 02:18:21;;;;;;;6.60;2.20;;;;;;;;;;4999829;28;24396;-64
2021/11/08 02:20:48;;;;;;;7.85;2.40;;;;;;;;;;4999397;28;24432;-63
2021/11/08 02:23:14;;;;;;;4.40;2.10;;;;;;;;;;5001804;28;24691;-63
2021/11/08 02:25:40;;;;;;;4.63;2.22;;;;;;;;;;5001638;28;24421;-64
2021/11/08 02:28:06;;;;;;;3.80;2.43;;;;;;;;;;4995921;28;24889;-63
2021/11/08 02:30:35;;;;;;;5.10;2.55;;;;;;;;;;4996007;28;24385;-63
2021/11/08 02:33:00;;;;;;;4.67;2.83;;;;;;;;;;4997927;28;24458;-63
2021/11/08 02:35:26;;;;;;;7.17;2.50;;;;;;;;;;4999872;28;24389;-61
2021/11/08 02:37:52;;;;;;;4.82;2.28;;;;;;;;;;4998974;28;25096;-63
2021/11/08 02:40:20;;;;;;;6.70;2.30;;;;;;;;;;5003349;28;24443;-62
2021/11/08 02:42:50;;;;;;;4.80;2.70;;;;;;;;;;5001106;28;24482;-62
2021/11/08 02:45:19;;;;;;;3.47;2.45;;;;;;;;;;4995456;28;24444;-62
2021/11/08 02:47:45;;;;;;;3.97;2.15;;;;;;;;;;4998104;28;24733;-62
2021/11/08 02:50:12;;;;;;;4.40;2.40;;;;;;;;;;5002808;28;24937;-62
2021/11/08 02:52:37;;;;;;;5.15;2.20;;;;;;;;;;5003988;28;24499;-62
2021/11/08 02:55:04;;;;;;;4.25;2.20;;;;;;;;;;5002849;28;24474;-61
2021/11/08 02:57:29;;;;;;;4.45;2.40;;;;;;;;;;5004450;28;24513;-62
2021/11/08 02:59:57;;;;;;;3.50;2.25;;;;;;;;;;4998309;28;24561;-62
2021/11/08 03:02:23;;;;;;;5.22;2.53;;;;;;;;;;5002594;28;24510;-61
2021/11/08 03:04:52;;;;;;;7.22;2.25;;;;;;;;;;5002123;28;24480;-63
2021/11/08 03:07:17;;;;;;;6.10;2.50;;;;;;;;;;5004138;28;24432;-63
2021/11/08 03:09:49;;;;;;;7.65;2.90;;;;;;;;;;5004277;28;24407;-62
2021/11/08 03:12:16;;;;;;;5.77;2.77;;;;;;;;;;4998448;28;24413;-62
2021/11/08 03:14:57;;;;;;;3.85;2.20;;;;;;;;;;5000185;28;25019;-63
2021/11/08 03:17:25;;;;;;;4.97;2.35;;;;;;;;;;5004052;28;24998;-63
2021/11/08 03:19:51;;;;;;;6.67;2.60;;;;;;;;;;5003759;28;24454;-63
2021/11/08 03:22:19;;;;;;;3.67;2.27;;;;;;;;;;5002068;28;24450;-62
2021/11/08 03:27:18;;;;;;;5.87;2.40;;;;;;;;;;5002545;28;24779;-63
2021/11/08 03:29:44;;;;;;;4.88;2.50;;;;;;;;;;5002124;28;24424;-62
2021/11/08 03:32:10;;;;;;;4.10;2.20;;;;;;;;;;5004373;28;24489;-63
2021/11/08 03:34:37;;;;;;;5.50;2.60;;;;;;;;;;5001938;28;24958;-63
2021/11/08 03:37:03;;;;;;;5.00;2.42;;;;;;;;;;4998582;28;24408;-63
2021/11/08 03:39:28;;;;;;;5.20;2.40;;;;;;;;;;5000275;28;24419;-62
2021/11/08 03:41:53;;;;;;;4.45;2.30;;;;;;;;;;5003689;28;24424;-62
2021/11/08 03:44:18;;;;;;;3.40;2.00;;;;;;;;;;5003750;28;24404;-62
2021/11/08 03:46:43;;;;;;;7.28;2.55;;;;;;;;;;5001786;28;24939;-63
2021/11/08 03:49:09;;;;;;;7.07;2.77;;;;;;;;;;5000054;28;24484;-63
2021/11/08 03:51:34;;;;;;;6.00;2.20;;;;;;;;;;4998736;28;24970;-63
2021/11/08 03:53:59;;;;;;;4.20;2.10;;;;;;;;;;5002421;28;24432;-63
2021/11/08 03:56:24;;;;;;;6.43;2.67;;;;;;;;;;5003377;28;24408;-63
2021/11/08 03:58:50;;;;;;;5.00;2.50;;;;;;;;;;5001389;28;24427;-63
2021/11/08 04:01:15;;;;;;;5.15;2.58;;;;;;;;;;5003779;28;24463;-62
2021/11/08 04:03:41;;;;;;;7.57;2.80;;;;;;;;;;5003210;28;24425;-63
2021/11/08 04:06:06;;;;;;;5.60;2.40;;;;;;;;;;4997547;28;25037;-62
2021/11/08 04:08:31;;;;;;;5.20;2.30;;;;;;;;;;4997766;28;24405;-63
2021/11/08 04:10:57;;;;;;;5.87;2.90;;;;;;;;;;5001376;28;24764;-62
2021/11/08 04:13:28;;;;;;;5.10;2.50;;;;;;;;;;5003362;28;24827;-62
2021/11/08 04:15:53;;;;;;;5.68;2.50;;;;;;;;;;5001627;28;24479;-63
2021/11/08 04:18:20;;;;;;;4.67;2.40;;;;;;;;;;5000571;28;24428;-62
2021/11/08 04:20:46;;;;;;;5.18;2.15;;;;;;;;;;4999294;28;24942;-62
2021/11/08 04:23:12;;;;;;;5.88;3.00;;;;;;;;;;4996408;28;24523;-62
2021/11/08 04:25:38;;;;;;;5.40;2.50;;;;;;;;;;5000752;28;24471;-62
2021/11/08 04:28:04;;;;;;;9.57;2.65;;;;;;;;;;5002001;28;24432;-65
2021/11/08 04:30:31;;;;;;;6.80;2.57;;;;;;;;;;5003229;28;24459;-63
2021/11/08 04:35:28;;;;;;;5.70;2.50;;;;;;;;;;4997126;28;24416;-64
2021/11/08 04:38:12;;;;;;;7.07;2.50;;;;;;;;;;4999772;28;24788;-63
2021/11/08 04:40:47;;;;;;;5.55;2.50;;;;;;;;;;5000608;28;24447;-63
2021/11/08 04:57:24;;;;;;;4.97;2.17;;;;;;;;;;5002454;28;24961;-64
2021/11/08 05:29:56;;;;;;;7.57;2.70;;;;;;;;;;4986379;28;24404;-63
2021/11/08 05:32:16;;;;;;;8.13;3.00;;;;;;;;;;4993557;28;24429;-62
2021/11/08 05:34:41;;;;;;;6.43;2.70;;;;;;;;;;5005593;28;24783;-63
2021/11/08 05:37:08;;;;;;;7.00;2.63;;;;;;;;;;5002487;28;24993;-65
2021/11/08 05:39:35;;;;;;;5.43;2.50;;;;;;;;;;4991072;28;24456;-62
2021/11/08 05:42:02;;;;;;;5.25;2.60;;;;;;;;;;4993753;28;24401;-62
2021/11/08 05:44:27;;;;;;;5.80;2.80;;;;;;;;;;4982500;28;24428;-66
2021/11/08 05:46:53;;;;;;;4.68;2.50;;;;;;;;;;5004000;28;24877;-62
2021/11/08 05:49:18;;;;;;;6.33;2.70;;;;;;;;;;5009309;28;24458;-63
2021/11/08 05:51:43;;;;;;;6.35;3.08;;;;;;;;;;5007400;28;24774;-63
2021/11/08 05:54:08;;;;;;;7.03;2.77;;;;;;;;;;4995507;28;24489;-63
2021/11/08 05:56:51;;;;;;;7.47;3.00;;;;;;;;;;4999316;28;24775;-63
2021/11/08 06:50:44;;;;;;;6.35;3.03;;;;;;;;;;5001669;28;24435;-62
2021/11/08 06:53:17;;;;;;;6.88;3.40;;;;;;;;;;5000822;28;24950;-63
2021/11/08 06:55:46;;;;;;;5.75;2.65;;;;;;;;;;5004295;28;24508;-64
2021/11/08 06:58:16;;;;;;;4.78;2.58;;;;;;;;;;5004511;28;24426;-63
2021/11/08 07:00:41;;;;;;;5.30;3.00;;;;;;;;;;5001386;28;24955;-64
2021/11/08 07:03:06;;;;;;;7.18;3.25;;;;;;;;;;4989363;28;24471;-64
2021/11/08 07:05:31;;;;;;;6.85;3.10;;;;;;;;;;4980466;28;24790;-64
2021/11/08 07:07:56;;;;;;;4.82;3.10;;;;;;;;;;4992974;28;24486;-64
2021/11/08 07:10:22;;;;;;;6.13;3.00;;;;;;;;;;5001565;28;24417;-64
2021/11/08 07:12:48;;;;;;;6.80;3.30;;;;;;;;;;4998795;28;24775;-63
2021/11/08 07:15:13;;;;;;;5.07;2.80;;;;;;;;;;4997381;28;24420;-63
2021/11/08 07:17:38;;;;;;;4.60;2.80;;;;;;;;;;4998908;28;24760;-63
2021/11/08 07:20:04;;;;;;;5.25;2.63;;;;;;;;;;4998093;28;24419;-63
2021/11/08 07:22:29;;;;;;;7.40;3.10;;;;;;;;;;4999055;28;24428;-63
2021/11/08 07:24:54;;;;;;;4.80;2.63;;;;;;;;;;5003963;28;24451;-65
2021/11/08 07:27:20;;;;;;;4.90;2.90;;;;;;;;;;5004379;28;24751;-63
2021/11/08 07:29:45;;;;;;;6.82;2.75;;;;;;;;;;5002075;28;25280;-64
2021/11/08 07:32:10;;;;;;;6.67;3.20;;;;;;;;;;4999409;28;24408;-63
2021/11/08 07:34:35;;;;;;;5.47;2.80;;;;;;;;;;4998727;28;24507;-63
2021/11/08 07:37:01;;;;;;;5.43;2.97;;;;;;;;;;4998625;28;25004;-63
2021/11/08 07:39:27;;;;;;;4.80;3.03;;;;;;;;;;5002648;28;24787;-63
2021/11/08 07:41:52;;;;;;;6.10;3.40;;;;;;;;;;4987754;28;24466;-63
2021/11/08 07:44:17;;;;;;;6.32;2.63;;;;;;;;;;4987768;28;24452;-62
2021/11/08 07:46:43;;;;;;;6.85;3.08;;;;;;;;;;5001117;28;24478;-64
2021/11/08 07:49:08;;;;;;;5.38;2.72;;;;;;;;;;4997173;28;24546;-63
2021/11/08 07:51:33;;;;;;;5.53;3.00;;;;;;;;;;4984106;28;24958;-63
2021/11/08 07:53:58;;;;;;;6.87;2.90;;;;;;;;;;4982258;28;24487;-63
2021/11/08 07:56:23;;;;;;;6.03;3.03;;;;;;;;;;4980338;28;24393;-63
2021/11/08 07:58:49;;;;;;;7.53;2.77;;;;;;;;;;4978012;28;24400;-64
2021/11/08 08:01:15;;;;;;;7.30;3.30;;;;;;;;;;4994455;28;24409;-63
2021/11/08 08:03:40;;;;;;;7.40;3.30;;;;;;;;;;5003030;28;24400;-63
2021/11/08 08:06:06;;;;;;;5.00;2.87;;;;;;;;;;5002364;28;24906;-64
2021/11/08 08:08:31;;;;;;;5.63;2.83;;;;;;;;;;5002693;28;24566;-63
2021/11/08 08:10:56;;;;;;;4.50;2.60;;;;;;;;;;4999316;28;24427;-64
2021/11/08 08:13:25;;;;;;;5.60;2.73;;;;;;;;;;4997945;28;24555;-63
2021/11/08 08:15:52;;;;;;;7.27;2.80;;;;;;;;;;4999444;28;24462;-64
2021/11/08 08:18:17;;;;;;;6.05;2.78;;;;;;;;;;5001267;28;24479;-64
2021/11/08 08:20:42;;;;;;;4.83;2.60;;;;;;;;;;5002205;28;25093;-63
2021/11/08 08:23:08;;;;;;;10.63;3.20;;;;;;;;;;5001967;28;24433;-63
2021/11/08 08:25:33;;;;;;;8.00;3.40;;;;;;;;;;5001477;28;24419;-64
2021/11/08 08:27:58;;;;;;;7.93;3.07;;;;;;;;;;4997406;28;24506;-64
2021/11/08 08:30:25;;;;;;;5.57;2.60;;;;;;;;;;4996656;28;24550;-64
2021/11/08 08:32:50;;;;;;;8.07;2.97;;;;;;;;;;4998901;28;24415;-64
2021/11/08 08:35:15;;;;;;;6.47;3.10;;;;;;;;;;4995655;28;24511;-64
2021/11/08 08:37:41;;;;;;;3.60;2.80;;;;;;;;;;4982675;28;24400;-64
2021/11/08 08:40:06;;;;;;;7.33;3.00;;;;;;;;;;4984776;28;24434;-64
2021/11/08 08:42:33;;;;;;;7.13;2.80;;;;;;;;;;4999239;28;24405;-64
2021/11/08 08:44:58;;;;;;;8.13;3.08;;;;;;;;;;4995808;28;24809;-64
2021/11/08 08:47:24;;;;;;;6.80;2.90;;;;;;;;;;5002310;28;24417;-64
2021/11/08 08:49:49;;;;;;;5.05;2.97;;;;;;;;;;5000472;28;24443;-63
2021/11/08 08:52:15;;;;;;;6.10;2.60;;;;;;;;;;4999524;28;24412;-63
2021/11/08 08:54:40;;;;;;;4.32;2.55;;;;;;;;;;4998881;28;24804;-64
2021/11/08 08:57:05;;;;;;;5.23;2.37;;;;;;;;;;4998328;28;25068;-63
2021/11/08 08:59:30;;;;;;;5.03;2.70;;;;;;;;;;5000364;28;24416;-63
2021/11/08 09:01:57;;;;;;;8.50;3.20;;;;;;;;;;5000263;28;25227;-64
2021/11/08 09:04:23;;;;;;;6.32;3.20;;;;;;;;;;5002565;28;24388;-63
2021/11/08 09:06:48;;;;;;;5.30;2.40;;;;;;;;;;4996303;28;24846;-63
2021/11/08 09:09:13;;;;;;;6.03;2.70;;;;;;;;;;4998477;28;24458;-64
2021/11/08 09:11:39;;;;;;;5.80;3.00;;;;;;;;;;5000841;28;24459;-64
2021/11/08 09:14:05;;;;;;;3.90;2.20;;;;;;;;;;5002416;28;24399;-63
2021/11/08 09:16:30;;;;;;;4.40;2.60;;;;;;;;;;5002337;28;24399;-63
2021/11/08 09:18:55;;;;;;;5.88;2.63;;;;;;;;;;5000105;28;24420;-64
2021/11/08 09:21:22;;;;;;;6.50;3.27;;;;;;;;;;4996802;28;24495;-63
2021/11/08 09:23:48;;;;;;;4.07;2.20;;;;;;;;;;4996771;28;24436;-64
2021/11/08 09:26:14;;;;;;;5.35;2.95;;;;;;;;;;5000448;28;24400;-64
2021/11/08 09:28:40;;;;;;;5.63;2.60;;;;;;;;;;5000022;28;24485;-64
2021/11/08 09:31:05;;;;;;;5.20;2.83;;;;;;;;;;5001951;28;24500;-64
2021/11/08 09:33:31;;;;;;;8.10;2.90;;;;;;;;;;4998769;28;24412;-63
2021/11/08 09:36:04;;;;;;;3.90;2.30;;;;;;;;;;4977312;28;24926;-63
2021/11/08 09:38:29;;;;;;;5.97;2.67;;;;;;;;;;4976724;28;24956;-63
2021/11/08 09:40:55;;;;;;;7.10;2.40;;;;;;;;;;4978945;28;24400;-63
2021/11/08 09:43:23;;;;;;;5.40;2.85;;;;;;;;;;4989484;28;24978;-63
2021/11/08 09:45:48;;;;;;;3.72;2.28;;;;;;;;;;5000356;28;24458;-64
2021/11/08 09:48:13;;;;;;;5.70;2.93;;;;;;;;;;5002399;28;24428;-63
2021/11/08 09:50:40;;;;;;;5.10;2.83;;;;;;;;;;5002518;28;24465;-63
2021/11/08 09:53:06;;;;;;;6.25;2.80;;;;;;;;;;5000798;28;24444;-64
2021/11/08 09:55:32;;;;;;;4.78;2.70;;;;;;;;;;5004285;28;25047;-63
2021/11/08 09:57:57;;;;;;;9.27;3.20;;;;;;;;;;5005859;28;24443;-63
2021/11/08 10:00:25;;;;;;;4.50;2.40;;;;;;;;;;5005857;28;25022;-63
2021/11/08 10:02:52;;;;;;;6.03;2.55;;;;;;;;;;5002225;28;24466;-64
2021/11/08 10:05:18;;;;;;;3.93;2.40;;;;;;;;;;5000417;28;24456;-64
2021/11/08 10:07:43;;;;;;;5.57;2.33;;;;;;;;;;5000156;28;24553;-64
2021/11/08 10:10:08;;;;;;;5.10;2.65;;;;;;;;;;5005648;28;24387;-63
2021/11/08 10:12:34;;;;;;;5.90;2.43;;;;;;;;;;5005584;28;24997;-64
2021/11/08 10:14:59;;;;;;;6.00;2.60;;;;;;;;;;5003777;28;24519;-64
2021/11/08 10:17:24;;;;;;;5.63;2.70;;;;;;;;;;5005884;28;24487;-63
2021/11/08 10:19:50;;;;;;;4.80;2.43;;;;;;;;;;4999507;28;24507;-65
2021/11/08 10:22:16;;;;;;;4.53;2.20;;;;;;;;;;4999949;28;24412;-64
2021/11/08 10:24:41;;;;;;;5.68;2.60;;;;;;;;;;5003707;28;24474;-64
2021/11/08 10:27:09;;;;;;;4.63;2.80;;;;;;;;;;5005349;28;24396;-64
2021/11/08 10:29:34;;;;;;;5.13;2.70;;;;;;;;;;5005204;28;24981;-64
2021/11/08 10:32:01;;;;;;;3.53;2.10;;;;;;;;;;5000706;28;24413;-63
2021/11/08 10:34:28;;;;;;;6.60;2.60;;;;;;;;;;4981698;28;25376;-64
2021/11/08 10:37:04;;;;;;;4.53;2.50;;;;;;;;;;4980098;28;24440;-63
2021/11/08 10:39:32;;;;;;;5.60;2.57;;;;;;;;;;4994645;28;24536;-64
2021/11/08 10:41:58;;;;;;;6.67;3.10;;;;;;;;;;5004942;28;24404;-64
2021/11/08 10:44:23;;;;;;;5.80;2.57;;;;;;;;;;5004908;28;24771;-64
2021/11/08 10:46:54;;;;;;;5.20;2.63;;;;;;;;;;5003068;28;24400;-64
2021/11/08 10:49:20;;;;;;;4.93;2.60;;;;;;;;;;5002452;28;24551;-63
2021/11/08 10:51:48;;;;;;;5.70;2.50;;;;;;;;;;5001429;28;24388;-63
2021/11/08 10:54:15;;;;;;;6.30;2.40;;;;;;;;;;4999048;28;24451;-63
2021/11/08 10:56:43;;;;;;;7.70;2.55;;;;;;;;;;4999124;28;24497;-63
2021/11/08 10:59:10;;;;;;;5.10;2.20;;;;;;;;;;5003521;28;25293;-63
2021/11/08 11:01:45;;;;;;;3.33;1.80;;;;;;;;;;5004714;28;24511;-63
2021/11/08 11:04:11;;;;;;;4.72;2.40;;;;;;;;;;5002937;28;24407;-64
2021/11/08 11:06:36;;;;;;;6.50;2.38;;;;;;;;;;5001216;28;24417;-64
2021/11/08 11:09:07;;;;;;;5.30;2.80;;;;;;;;;;4998736;28;24915;-63
2021/11/08 11:11:32;;;;;;;8.98;3.00;;;;;;;;;;5002412;28;24412;-64
2021/11/08 11:13:57;;;;;;;4.90;2.40;;;;;;;;;;5001023;28;24454;-64
2021/11/08 11:16:33;;;;;;;5.23;2.70;;;;;;;;;;5004587;28;24484;-63
2021/11/08 11:19:00;;;;;;;6.28;2.60;;;;;;;;;;5002479;28;24507;-64
2021/11/08 11:21:25;;;;;;;5.18;2.10;;;;;;;;;;5002209;28;24812;-63
2021/11/08 11:23:50;;;;;;;3.23;2.33;;;;;;;;;;5000274;28;24444;-64
2021/11/08 11:26:28;;;;;;;4.27;2.60;;;;;;;;;;5000779;28;24428;-63
2021/11/08 11:28:54;;;;;;;5.05;2.50;;;;;;;;;;5004240;28;24458;-63
2021/11/08 11:31:21;;;;;;;7.20;2.80;;;;;;;;;;4997427;28;24476;-63
2021/11/08 11:33:47;;;;;;;3.05;2.25;;;;;;;;;;4982887;28;24385;-64
2021/11/08 11:36:16;;;;;;;4.28;2.20;;;;;;;;;;4996200;28;24500;-64
2021/11/08 11:39:02;;;;;;;5.10;2.53;;;;;;;;;;5000109;28;24424;-64
2021/11/08 11:41:29;;;;;;;3.80;2.22;;;;;;;;;;4999703;28;24444;-63
2021/11/08 11:43:56;;;;;;;3.67;1.80;;;;;;;;;;5002353;28;24393;-64
2021/11/08 11:46:26;;;;;;;3.85;2.03;;;;;;;;;;5003361;28;24454;-63
2021/11/08 11:48:51;;;;;;;4.72;2.30;;;;;;;;;;5001583;28;25098;-63
2021/11/08 11:51:25;;;;;;;4.88;2.38;;;;;;;;;;4998492;28;24519;-64
2021/11/08 11:53:51;;;;;;;6.32;2.50;;;;;;;;;;4998389;28;24396;-63
2021/11/08 11:56:16;;;;;;;3.33;2.10;;;;;;;;;;5002098;28;24539;-64
2021/11/08 11:58:43;;;;;;;4.25;2.50;;;;;;;;;;5001310;28;24511;-64
2021/11/08 12:01:10;;;;;;;2.63;1.83;;;;;;;;;;5002408;28;25060;-64
2021/11/08 12:03:35;;;;;;;3.13;2.17;;;;;;;;;;5003349;28;24436;-64
2021/11/08 12:06:02;;;;;;;4.45;2.45;;;;;;;;;;4998109;28;24403;-63
2021/11/08 12:08:37;;;;;;;5.63;2.40;;;;;;;;;;4997413;28;24432;-63
2021/11/08 12:11:03;;;;;;;6.28;2.33;;;;;;;;;;5000199;28;25185;-65
2021/11/08 12:13:29;;;;;;;3.03;1.90;;;;;;;;;;5002376;28;24427;-64
2021/11/08 12:15:55;;;;;;;3.55;2.10;;;;;;;;;;5000638;28;24482;-64
2021/11/08 12:18:21;;;;;;;5.95;2.70;;;;;;;;;;5003092;28;24409;-65
2021/11/08 12:20:47;;;;;;;3.92;2.22;;;;;;;;;;4999327;28;24450;-64
2021/11/08 12:23:29;;;;;;;6.72;2.83;;;;;;;;;;4999590;28;24428;-65
2021/11/08 12:25:55;;;;;;;4.75;2.40;;;;;;;;;;4999609;28;24404;-64
2021/11/08 12:28:22;;;;;;;3.63;1.90;;;;;;;;;;5002765;28;24424;-64
2021/11/08 12:30:49;;;;;;;4.68;2.40;;;;;;;;;;4987388;28;24756;-65
2021/11/08 12:33:32;;;;;;;4.60;2.70;;;;;;;;;;5079369;28;24807;-64
2021/11/08 12:36:00;;;;;;;5.40;2.40;;;;;;;;;;5074034;28;24395;-64
2021/11/08 12:38:30;;;;;;;5.13;2.40;;;;;;;;;;5072923;28;24523;-64
2021/11/08 12:41:03;;;;;;;4.22;2.30;;;;;;;;;;5078516;28;24414;-65
2021/11/08 12:43:31;;;;;;;6.60;2.75;;;;;;;;;;5078273;28;24966;-64
2021/11/08 12:46:06;;;;;;;5.90;2.23;;;;;;;;;;5077502;28;24470;-64
2021/11/08 12:48:32;;;;;;;3.45;2.60;;;;;;;;;;5075318;28;24464;-64
2021/11/08 12:51:00;;;;;;;4.45;2.70;;;;;;;;;;5072958;28;25005;-65
2021/11/08 12:53:27;;;;;;;4.03;2.40;;;;;;;;;;5076816;28;24410;-64
2021/11/08 12:55:54;;;;;;;4.72;3.00;;;;;;;;;;5077078;28;24414;-64
2021/11/08 12:58:29;;;;;;;5.03;2.60;;;;;;;;;;5078705;28;24399;-64
2021/11/08 13:00:54;;;;;;;6.03;2.60;;;;;;;;;;5073409;28;24395;-64
2021/11/08 13:03:37;;;;;;;6.13;2.47;;;;;;;;;;5072906;28;24804;-62
2021/11/08 13:06:04;;;;;;;5.63;2.53;;;;;;;;;;5075443;28;24960;-65
2021/11/08 13:08:29;;;;;;;5.30;2.00;;;;;;;;;;5078568;28;24425;-64
2021/11/08 13:11:10;;;;;;;5.63;2.47;;;;;;;;;;5076681;28;24446;-64
2021/11/08 13:13:36;;;;;;;6.87;2.30;;;;;;;;;;5076091;28;24945;-64
2021/11/08 13:16:07;;;;;;;5.20;2.60;;;;;;;;;;5072753;28;24472;-65
2021/11/08 13:18:37;;;;;;;4.65;2.50;;;;;;;;;;5072616;28;24418;-64
2021/11/08 13:21:03;;;;;;;4.13;2.50;;;;;;;;;;5070667;28;25010;-64
2021/11/08 13:23:31;;;;;;;5.63;2.40;;;;;;;;;;5057797;28;24435;-64
2021/11/08 13:25:57;;;;;;;4.15;2.47;;;;;;;;;;5056016;28;24959;-64
2021/11/08 13:28:23;;;;;;;3.92;2.20;;;;;;;;;;5052095;28;24487;-64
2021/11/08 13:30:51;;;;;;;3.63;2.20;;;;;;;;;;5051927;28;24441;-64
2021/11/08 13:33:18;;;;;;;2.78;1.80;;;;;;;;;;5075469;28;24500;-64
2021/11/08 13:35:44;;;;;;;3.30;1.92;;;;;;;;;;5074425;28;24486;-64
2021/11/08 13:38:11;;;;;;;5.93;2.40;;;;;;;;;;5077496;28;24458;-64
2021/11/08 13:40:40;;;;;;;7.05;3.70;;;;;;;;;;5059187;28;24417;-64
2021/11/08 13:43:06;;;;;;;6.25;3.47;;;;;;;;;;5068339;28;24403;-64
2021/11/08 13:45:41;;;;;;;8.00;3.10;;;;;;;;;;5058582;28;24392;-64
2021/11/08 13:48:16;;;;;;;3.35;2.20;;;;;;;;;;5060747;28;24583;-64
2021/11/08 13:50:42;;;;;;;4.93;2.67;;;;;;;;;;5062297;28;24742;-64
2021/11/08 13:53:07;;;;;;;8.63;5.87;;;;;;;;;;5063999;28;25018;-64
2021/11/08 13:55:33;;;;;;;4.50;3.70;;;;;;;;;;5063686;28;24426;-64
2021/11/08 13:57:58;;;;;;;8.00;6.28;;;;;;;;;;5058477;28;24411;-64
2021/11/08 14:00:23;;;;;;;6.45;4.05;;;;;;;;;;5058738;28;24468;-64
2021/11/08 14:02:49;;;;;;;5.82;4.20;;;;;;;;;;5060538;28;24528;-64
2021/11/08 14:05:14;;;;;;;4.10;3.10;;;;;;;;;;5063580;28;24737;-64
2021/11/08 14:07:39;;;;;;;6.55;3.00;;;;;;;;;;5063916;28;24514;-65
2021/11/08 14:10:09;;;;;;;4.20;2.60;;;;;;;;;;5061995;28;24514;-64
2021/11/08 14:12:34;;;;;;;6.95;3.90;;;;;;;;;;5060387;28;24419;-64
2021/11/08 14:15:00;;;;;;;5.63;3.83;;;;;;;;;;5058530;28;24461;-64
2021/11/08 14:17:27;;;;;;;5.00;4.50;;;;;;;;;;5064107;28;24464;-64
2021/11/08 14:19:53;;;;;;;5.40;2.80;;;;;;;;;;5061692;28;24883;-64
2021/11/08 14:22:22;;;;;;;4.40;2.80;;;;;;;;;;5061861;28;24968;-64
2021/11/08 14:24:47;;;;;;;3.42;2.20;;;;;;;;;;5059988;28;24441;-63
2021/11/08 14:27:14;;;;;;;4.53;2.40;;;;;;;;;;5060305;28;24687;-63
2021/11/08 14:29:39;;;;;;;6.50;3.13;;;;;;;;;;5057695;28;24512;-63
2021/11/08 14:32:06;;;;;;;7.83;2.60;;;;;;;;;;5063195;28;24496;-64
2021/11/08 14:34:36;;;;;;;6.07;2.33;;;;;;;;;;5063581;28;24994;-64
2021/11/08 14:37:08;;;;;;;3.00;2.10;;;;;;;;;;5061861;28;24390;-64
2021/11/08 14:39:38;;;;;;;5.22;2.75;;;;;;;;;;5059869;28;24738;-64
2021/11/08 14:42:05;;;;;;;3.37;2.00;;;;;;;;;;5060051;28;24399;-64
2021/11/08 14:44:57;;;;;;;3.47;1.83;;;;;;;;;;5062651;28;24501;-64
2021/11/08 14:47:23;;;;;;;5.70;2.60;;;;;;;;;;5041315;28;24421;-63
2021/11/08 14:50:03;;;;;;;4.88;2.50;;;;;;;;;;5039325;28;24937;-63
2021/11/08 14:52:43;;;;;;;3.80;2.33;;;;;;;;;;5037575;28;24431;-63
2021/11/08 14:55:08;;;;;;;4.22;3.05;;;;;;;;;;5038315;28;24406;-64
2021/11/08 14:57:34;;;;;;;4.47;2.10;;;;;;;;;;5057508;28;24411;-63
2021/11/08 15:00:03;;;;;;;6.30;2.50;;;;;;;;;;5063108;28;24398;-63
2021/11/08 15:02:28;;;;;;;3.75;2.17;;;;;;;;;;5062223;28;24414;-63
2021/11/08 15:04:59;;;;;;;2.47;2.05;;;;;;;;;;5061023;28;24793;-65
2021/11/08 15:07:40;;;;;;;4.80;2.20;;;;;;;;;;5057561;28;24484;-64
2021/11/08 15:10:08;;;;;;;3.30;2.40;;;;;;;;;;5059581;28;24447;-64
2021/11/08 15:12:35;;;;;;;5.43;2.33;;;;;;;;;;5057957;28;24975;-64
2021/11/08 15:15:20;;;;;;;6.13;2.65;;;;;;;;;;5060926;28;24410;-64
2021/11/08 15:17:48;;;;;;;4.95;2.47;;;;;;;;;;5049741;28;24524;-64
2021/11/08 15:20:17;;;;;;;2.57;2.10;;;;;;;;;;5057323;28;24830;-62
2021/11/08 15:22:45;;;;;;;5.18;2.30;;;;;;;;;;5058529;28;24952;-61
2021/11/08 15:25:12;;;;;;;4.38;2.10;;;;;;;;;;5062162;28;25006;-63
2021/11/08 15:27:37;;;;;;;3.60;2.13;;;;;;;;;;5042780;28;24677;-64
2021/11/08 15:30:04;;;;;;;3.33;1.90;;;;;;;;;;5040885;28;24967;-65
2021/11/08 15:32:29;;;;;;;3.25;2.00;;;;;;;;;;5040710;28;24527;-64
2021/11/08 15:34:54;;;;;;;3.70;2.33;;;;;;;;;;5057056;28;24442;-64
2021/11/08 15:37:22;;;;;;;5.95;2.33;;;;;;;;;;5058385;28;25035;-65
2021/11/08 15:39:48;;;;;;;3.22;2.50;;;;;;;;;;5060870;28;25171;-64
2021/11/08 15:42:13;;;;;;;3.95;2.40;;;;;;;;;;5062178;28;24490;-63
2021/11/08 15:44:38;;;;;;;4.88;2.10;;;;;;;;;;5061871;28;24425;-63
2021/11/08 15:47:05;;;;;;;2.77;2.13;;;;;;;;;;5060317;28;24414;-64
2021/11/08 15:49:30;;;;;;;2.17;1.95;;;;;;;;;;5058186;28;24932;-64
2021/11/08 15:51:56;;;;;;;2.67;2.00;;;;;;;;;;5056081;28;24434;-63
2021/11/08 15:54:22;;;;;;;3.13;2.15;;;;;;;;;;5058187;28;24984;-62
2021/11/08 15:56:49;;;;;;;3.97;2.10;;;;;;;;;;5040890;28;25047;-64
2021/11/08 15:59:14;;;;;;;3.10;2.00;;;;;;;;;;5062148;28;24390;-64
2021/11/08 16:01:42;;;;;;;3.87;2.43;;;;;;;;;;5062080;28;24410;-64
2021/11/08 16:04:07;;;;;;;3.20;2.08;;;;;;;;;;5058672;28;24426;-64
2021/11/08 16:06:32;;;;;;;3.80;2.20;;;;;;;;;;5038457;28;24969;-65
2021/11/08 16:08:58;;;;;;;5.70;2.90;;;;;;;;;;5057952;28;24403;-64
2021/11/08 16:11:24;;;;;;;2.97;1.90;;;;;;;;;;5061657;28;24744;-64
2021/11/08 16:13:50;;;;;;;3.75;2.10;;;;;;;;;;5060002;28;24398;-63
2021/11/08 16:16:16;;;;;;;4.53;2.45;;;;;;;;;;5061676;28;24749;-64
2021/11/08 16:18:41;;;;;;;3.85;2.40;;;;;;;;;;5058201;28;24406;-64
2021/11/08 16:21:07;;;;;;;4.85;2.20;;;;;;;;;;5056266;28;24411;-64
2021/11/08 16:23:33;;;;;;;2.88;1.92;;;;;;;;;;5058022;28;24402;-64
2021/11/08 16:26:00;;;;;;;3.20;1.93;;;;;;;;;;5061907;28;24410;-64